Airport View

Enter AWOS ICAO identifier for current METAR.

ex. KFNL

KOLV 112150Z AUTO 00000KT 10SM CLR 11/M06 A3049 RMK A01

11 Dec 2019 21:52

Frequency: 119.925

Phone: 662-893-5906

Other Area AWOS: KMEM - KNQA - KFYE - KAWM

TAF AMD KMEM 112051Z 1121/1224 20003KT P6SM SKC FM120100 14003KT P6SM SKC FM121500 13004KT P6SM SCT250